createdAt,value
2019-04-07T00:00:13.174Z,22.75
2019-04-07T00:01:13.163Z,22.78
2019-04-07T00:02:13.146Z,22.83
2019-04-07T00:03:13.149Z,22.88
2019-04-07T00:04:13.137Z,22.85
2019-04-07T00:05:14.685Z,22.81
2019-04-07T00:06:13.482Z,22.88
2019-04-07T00:07:13.745Z,22.87
2019-04-07T00:08:13.423Z,22.76
2019-04-07T00:09:13.063Z,22.84
2019-04-07T00:10:13.066Z,22.87
2019-04-07T00:11:13.927Z,22.76
2019-04-07T00:12:13.039Z,22.84
2019-04-07T00:13:13.600Z,22.87
2019-04-07T00:14:13.061Z,22.87
2019-04-07T00:15:13.054Z,22.88
2019-04-07T00:16:13.486Z,22.91
2019-04-07T00:17:12.986Z,22.85
2019-04-07T00:18:13.360Z,22.93
2019-04-07T00:19:13.648Z,22.84
2019-04-07T00:20:12.951Z,22.87
2019-04-07T00:21:13.581Z,22.93
2019-04-07T00:22:13.412Z,22.84
2019-04-07T00:23:13.161Z,22.81
2019-04-07T00:24:13.596Z,22.78
2019-04-07T00:25:13.127Z,22.81
2019-04-07T00:26:12.872Z,22.85
2019-04-07T00:27:13.099Z,22.78
2019-04-07T00:28:12.861Z,22.84
2019-04-07T00:29:12.852Z,22.81
2019-04-07T00:30:12.848Z,22.78
2019-04-07T00:31:13.374Z,22.90
2019-04-07T00:32:12.809Z,22.90
2019-04-07T00:33:13.316Z,22.88
2019-04-07T00:34:12.796Z,22.91
2019-04-07T00:35:23.245Z,22.88
2019-04-07T00:36:13.784Z,22.76
2019-04-07T00:37:12.892Z,22.78
2019-04-07T00:38:12.768Z,22.83
2019-04-07T00:39:12.725Z,22.90
2019-04-07T00:40:13.120Z,22.80
2019-04-07T00:41:12.726Z,22.80
2019-04-07T00:42:12.711Z,22.78
2019-04-07T00:43:13.603Z,22.81
2019-04-07T00:44:12.671Z,22.90
2019-04-07T00:45:12.660Z,22.87
2019-04-07T00:46:12.660Z,22.85
2019-04-07T00:47:13.044Z,22.76
2019-04-07T00:48:13.173Z,22.78
2019-04-07T00:49:13.118Z,22.78
2019-04-07T00:50:12.995Z,22.76
2019-04-07T00:51:12.607Z,22.93
2019-04-07T00:52:12.867Z,22.81
2019-04-07T00:53:12.585Z,22.90
2019-04-07T00:54:12.676Z,22.93
2019-04-07T00:55:13.036Z,22.73
2019-04-07T00:56:13.144Z,22.78
2019-04-07T00:57:12.965Z,22.85
2019-04-07T00:58:12.596Z,22.81
2019-04-07T00:59:12.528Z,22.83
2019-04-07T01:00:12.500Z,22.78
2019-04-07T01:01:12.501Z,22.90
2019-04-07T01:02:12.480Z,22.90
2019-04-07T01:03:12.466Z,22.87
2019-04-07T01:04:12.456Z,22.88
2019-04-07T01:05:12.719Z,22.76
2019-04-07T01:06:12.915Z,22.78
2019-04-07T01:07:12.960Z,22.78
2019-04-07T01:08:12.410Z,22.84
2019-04-07T01:09:12.420Z,22.81
2019-04-07T01:10:12.469Z,22.83
2019-04-07T01:11:12.391Z,22.78
2019-04-07T01:12:12.821Z,22.83
2019-04-07T01:13:12.353Z,22.78
2019-04-07T01:14:12.427Z,22.80
2019-04-07T01:15:12.518Z,22.76
2019-04-07T01:16:13.019Z,22.80
2019-04-07T01:17:12.596Z,22.80
2019-04-07T01:18:12.298Z,22.80
2019-04-07T01:19:12.440Z,22.87
2019-04-07T01:20:12.273Z,22.73
2019-04-07T01:21:12.795Z,22.76
2019-04-07T01:22:12.251Z,22.80
2019-04-07T01:23:12.729Z,22.81
2019-04-07T01:24:12.331Z,22.81
2019-04-07T01:25:12.224Z,22.78
2019-04-07T01:26:12.782Z,22.75
2019-04-07T01:27:12.539Z,22.84
2019-04-07T01:28:12.184Z,22.76
2019-04-07T01:29:12.177Z,22.80
2019-04-07T01:30:12.266Z,22.83
2019-04-07T01:31:12.233Z,22.83
2019-04-07T01:32:12.153Z,22.75
2019-04-07T01:33:12.754Z,22.80
2019-04-07T01:34:13.355Z,22.80
2019-04-07T01:35:12.359Z,22.81
2019-04-07T01:36:12.680Z,22.84
2019-04-07T01:37:12.220Z,22.80
2019-04-07T01:38:12.561Z,22.78
2019-04-07T01:39:12.071Z,22.72
2019-04-07T01:40:12.057Z,22.76
2019-04-07T01:41:12.160Z,22.80
2019-04-07T01:42:12.587Z,22.78
2019-04-07T01:43:12.766Z,22.80
2019-04-07T01:44:12.148Z,22.81
2019-04-07T01:45:12.677Z,22.83
2019-04-07T01:46:11.983Z,22.78
2019-04-07T01:47:12.347Z,22.80
2019-04-07T01:48:11.965Z,22.76
2019-04-07T01:49:11.952Z,22.78
2019-04-07T01:50:12.020Z,22.81
2019-04-07T01:51:11.933Z,22.76
2019-04-07T01:52:11.930Z,22.78
2019-04-07T01:53:12.556Z,22.75
2019-04-07T01:54:11.907Z,22.87
2019-04-07T01:55:12.870Z,22.76
2019-04-07T01:56:11.885Z,22.76
2019-04-07T01:57:11.886Z,22.83
2019-04-07T01:58:12.022Z,22.80
2019-04-07T01:59:12.189Z,22.75
2019-04-07T02:00:11.827Z,22.78
2019-04-07T02:01:12.050Z,22.76
2019-04-07T02:02:12.529Z,22.76
2019-04-07T02:03:12.146Z,22.81
2019-04-07T02:04:11.797Z,22.76
2019-04-07T02:05:11.768Z,22.75
2019-04-07T02:06:11.793Z,22.75
2019-04-07T02:07:11.751Z,22.76
2019-04-07T02:08:12.018Z,22.76
2019-04-07T02:09:12.459Z,22.76
2019-04-07T02:10:12.069Z,22.80
2019-04-07T02:11:11.706Z,22.72
2019-04-07T02:12:11.714Z,22.72
2019-04-07T02:13:12.164Z,22.80
2019-04-07T02:14:11.674Z,22.83
2019-04-07T02:15:11.666Z,22.78
2019-04-07T02:16:11.655Z,22.75
2019-04-07T02:17:12.040Z,22.80
2019-04-07T02:18:11.637Z,22.80
2019-04-07T02:19:11.621Z,22.78
2019-04-07T02:20:11.615Z,22.78
2019-04-07T02:21:12.132Z,22.78
2019-04-07T02:22:11.599Z,22.78
2019-04-07T02:23:11.694Z,22.78
2019-04-07T02:24:11.570Z,22.80
2019-04-07T02:25:11.959Z,22.81
2019-04-07T02:26:11.542Z,22.81
2019-04-07T02:27:11.541Z,22.80
2019-04-07T02:28:12.170Z,22.81
2019-04-07T02:29:11.675Z,22.75
2019-04-07T02:30:12.901Z,22.81
2019-04-07T02:31:11.629Z,22.78
2019-04-07T02:32:11.485Z,22.81
2019-04-07T02:33:12.363Z,22.78
2019-04-07T02:34:11.893Z,22.81
2019-04-07T02:35:12.177Z,22.72
2019-04-07T02:36:17.796Z,22.76
2019-04-07T02:37:12.426Z,22.76
2019-04-07T02:38:14.949Z,22.78
2019-04-07T02:39:13.122Z,22.78
2019-04-07T02:40:11.823Z,22.83
2019-04-07T02:41:12.346Z,22.76
2019-04-07T02:42:11.356Z,22.73
2019-04-07T02:43:11.359Z,22.78
2019-04-07T02:44:11.340Z,22.83
2019-04-07T02:45:11.330Z,22.80
2019-04-07T02:46:11.358Z,22.78
2019-04-07T02:47:11.303Z,22.80
2019-04-07T02:48:11.294Z,22.84
2019-04-07T02:49:12.226Z,22.73
2019-04-07T02:50:12.408Z,22.75
2019-04-07T02:51:11.280Z,22.73
2019-04-07T02:52:11.248Z,22.80
2019-04-07T02:53:11.262Z,22.78
2019-04-07T02:54:11.543Z,22.80
2019-04-07T02:55:11.218Z,22.80
2019-04-07T02:56:11.216Z,22.80
2019-04-07T02:57:11.192Z,22.75
2019-04-07T02:58:11.187Z,22.73
2019-04-07T02:59:12.884Z,22.80
2019-04-07T03:00:12.008Z,22.76
2019-04-07T03:01:11.523Z,22.76
2019-04-07T03:02:12.044Z,22.81
2019-04-07T03:03:11.153Z,22.78
2019-04-07T03:04:11.717Z,22.75
2019-04-07T03:05:11.882Z,22.75
2019-04-07T03:06:17.151Z,22.83
2019-04-07T03:07:12.082Z,22.81
2019-04-07T03:08:11.910Z,22.78
2019-04-07T03:09:11.074Z,22.72
2019-04-07T03:10:11.075Z,22.76
2019-04-07T03:11:11.032Z,22.80
2019-04-07T03:12:11.022Z,22.72
2019-04-07T03:13:11.035Z,22.73
2019-04-07T03:14:11.012Z,22.78
2019-04-07T03:15:11.238Z,22.76
2019-04-07T03:16:11.008Z,22.80
2019-04-07T03:17:11.838Z,22.75
2019-04-07T03:18:10.973Z,22.70
2019-04-07T03:19:11.041Z,22.83
2019-04-07T03:20:11.962Z,22.78
2019-04-07T03:21:11.635Z,22.78
2019-04-07T03:22:11.165Z,22.68
2019-04-07T03:23:10.931Z,22.80
2019-04-07T03:24:11.226Z,22.73
2019-04-07T03:25:11.161Z,22.83
2019-04-07T03:26:11.154Z,22.83
2019-04-07T03:27:10.877Z,22.81
2019-04-07T03:28:10.856Z,22.73
2019-04-07T03:29:11.816Z,22.72
2019-04-07T03:30:11.560Z,22.73
2019-04-07T03:31:12.668Z,22.72
2019-04-07T03:32:15.844Z,22.75
2019-04-07T03:33:14.211Z,22.70
2019-04-07T03:34:12.430Z,22.72
2019-04-07T03:35:12.670Z,22.63
2019-04-07T03:36:13.775Z,22.73
2019-04-07T03:37:26.267Z,22.72
2019-04-07T03:38:12.132Z,22.69
2019-04-07T03:39:10.860Z,22.66
2019-04-07T03:40:11.538Z,22.76
2019-04-07T03:41:11.808Z,22.69
2019-04-07T03:42:10.804Z,22.72
2019-04-07T03:43:10.707Z,22.73
2019-04-07T03:44:10.688Z,22.72
2019-04-07T03:45:11.276Z,22.75
2019-04-07T03:46:10.668Z,22.72
2019-04-07T03:47:10.636Z,22.69
2019-04-07T03:48:10.622Z,22.69
2019-04-07T03:49:11.300Z,22.69
2019-04-07T03:50:10.622Z,22.73
2019-04-07T03:51:11.061Z,22.66
2019-04-07T03:52:10.574Z,22.80
2019-04-07T03:53:10.587Z,22.72
2019-04-07T03:54:10.562Z,22.70
2019-04-07T03:55:10.549Z,22.72
2019-04-07T03:56:10.549Z,22.70
2019-04-07T03:57:11.257Z,22.69
2019-04-07T03:58:10.551Z,22.69
2019-04-07T03:59:10.932Z,22.72
2019-04-07T04:00:10.536Z,22.72
2019-04-07T04:01:10.492Z,22.72
2019-04-07T04:02:10.984Z,22.78
2019-04-07T04:03:10.978Z,22.73
2019-04-07T04:04:10.616Z,22.73
2019-04-07T04:05:10.617Z,22.73
2019-04-07T04:06:10.583Z,22.73
2019-04-07T04:07:22.360Z,22.66
2019-04-07T04:08:11.452Z,22.72
2019-04-07T04:09:11.265Z,22.80
2019-04-07T04:10:10.387Z,22.80
2019-04-07T04:11:10.399Z,22.73
2019-04-07T04:12:10.508Z,22.73
2019-04-07T04:13:11.080Z,22.68
2019-04-07T04:14:11.142Z,22.73
2019-04-07T04:15:10.577Z,22.72
2019-04-07T04:16:10.544Z,22.72
2019-04-07T04:17:10.310Z,22.70
2019-04-07T04:18:10.299Z,22.70
2019-04-07T04:19:11.065Z,22.68
2019-04-07T04:20:10.603Z,22.75
2019-04-07T04:21:11.195Z,22.75
2019-04-07T04:22:10.256Z,22.73
2019-04-07T04:23:10.444Z,22.68
2019-04-07T04:24:10.361Z,22.68
2019-04-07T04:25:10.724Z,22.72
2019-04-07T04:26:10.215Z,22.72
2019-04-07T04:27:10.809Z,22.63
2019-04-07T04:28:10.188Z,22.73
2019-04-07T04:29:10.396Z,22.69
2019-04-07T04:30:10.779Z,22.72
2019-04-07T04:31:11.056Z,22.66
2019-04-07T04:32:10.323Z,22.69
2019-04-07T04:33:10.343Z,22.68
2019-04-07T04:34:10.114Z,22.70
2019-04-07T04:35:10.808Z,22.73
2019-04-07T04:36:10.097Z,22.70
2019-04-07T04:37:10.083Z,22.72
2019-04-07T04:38:10.311Z,22.68
2019-04-07T04:39:10.193Z,22.73
2019-04-07T04:40:10.051Z,22.69
2019-04-07T04:41:10.180Z,22.73
2019-04-07T04:42:10.440Z,22.73
2019-04-07T04:43:10.422Z,22.69
2019-04-07T04:44:10.217Z,22.72
2019-04-07T04:45:10.395Z,22.73
2019-04-07T04:46:12.132Z,22.70
2019-04-07T04:47:10.301Z,22.75
2019-04-07T04:48:10.280Z,22.72
2019-04-07T04:49:09.950Z,22.73
2019-04-07T04:50:10.070Z,22.70
2019-04-07T04:51:09.939Z,22.78
2019-04-07T04:52:09.930Z,22.73
2019-04-07T04:53:10.759Z,22.70
2019-04-07T04:54:10.948Z,22.69
2019-04-07T04:55:09.896Z,22.69
2019-04-07T04:56:09.903Z,22.73
2019-04-07T04:57:09.858Z,22.73
2019-04-07T04:58:11.123Z,22.78
2019-04-07T04:59:09.830Z,22.68
2019-04-07T05:00:10.407Z,22.70
2019-04-07T05:01:10.614Z,22.70
2019-04-07T05:02:10.615Z,22.73
2019-04-07T05:03:09.783Z,22.76
2019-04-07T05:04:10.030Z,22.73
2019-04-07T05:05:10.825Z,22.68
2019-04-07T05:06:10.243Z,22.68
2019-04-07T05:07:10.199Z,22.72
2019-04-07T05:08:10.510Z,22.73
2019-04-07T05:09:09.719Z,22.69
2019-04-07T05:10:10.235Z,22.76
2019-04-07T05:11:09.728Z,22.70
2019-04-07T05:12:10.130Z,22.76
2019-04-07T05:13:09.870Z,22.70
2019-04-07T05:14:10.317Z,22.66
2019-04-07T05:15:09.787Z,22.65
2019-04-07T05:16:09.667Z,22.66
2019-04-07T05:17:10.071Z,22.72
2019-04-07T05:18:09.798Z,22.69
2019-04-07T05:19:09.806Z,22.80
2019-04-07T05:20:10.220Z,22.78
2019-04-07T05:21:09.702Z,22.73
2019-04-07T05:22:10.237Z,22.68
2019-04-07T05:23:09.827Z,22.69
2019-04-07T05:24:10.216Z,22.72
2019-04-07T05:25:09.539Z,22.73
2019-04-07T05:26:10.082Z,22.70
2019-04-07T05:27:09.726Z,22.66
2019-04-07T05:28:10.055Z,22.72
2019-04-07T05:29:09.515Z,22.70
2019-04-07T05:30:10.136Z,22.73
2019-04-07T05:31:09.820Z,22.75
2019-04-07T05:32:09.594Z,22.70
2019-04-07T05:33:09.961Z,22.69
2019-04-07T05:34:09.463Z,22.68
2019-04-07T05:35:09.425Z,22.69
2019-04-07T05:36:10.389Z,22.72
2019-04-07T05:37:09.887Z,22.68
2019-04-07T05:38:09.476Z,22.73
2019-04-07T05:39:10.231Z,22.66
2019-04-07T05:40:10.017Z,22.69
2019-04-07T05:41:09.364Z,22.72
2019-04-07T05:42:09.355Z,22.70
2019-04-07T05:43:09.677Z,22.70
2019-04-07T05:44:09.382Z,22.68
2019-04-07T05:45:10.011Z,22.73
2019-04-07T05:46:09.340Z,22.72
2019-04-07T05:47:12.313Z,22.69
2019-04-07T05:48:09.819Z,22.70
2019-04-07T05:49:09.272Z,22.73
2019-04-07T05:50:09.258Z,22.75
2019-04-07T05:51:09.765Z,22.70
2019-04-07T05:52:09.627Z,22.72
2019-04-07T05:53:12.985Z,22.66
2019-04-07T05:54:12.280Z,22.73
2019-04-07T05:55:09.767Z,22.75
2019-04-07T05:56:09.208Z,22.76
2019-04-07T05:57:09.731Z,22.70
2019-04-07T05:58:09.186Z,22.70
2019-04-07T05:59:11.556Z,22.68
2019-04-07T06:00:13.321Z,22.73
2019-04-07T06:01:10.709Z,22.72
2019-04-07T06:02:09.187Z,22.72
2019-04-07T06:03:09.448Z,22.70
2019-04-07T06:04:14.320Z,22.72
2019-04-07T06:05:10.960Z,22.70
2019-04-07T06:06:09.387Z,22.69
2019-04-07T06:07:09.183Z,22.75
2019-04-07T06:08:23.698Z,22.75
2019-04-07T06:09:10.054Z,22.73
2019-04-07T06:10:09.144Z,22.72
2019-04-07T06:11:09.034Z,22.69
2019-04-07T06:12:09.696Z,22.72
2019-04-07T06:13:11.828Z,22.69
2019-04-07T06:14:09.015Z,22.68
2019-04-07T06:15:09.608Z,22.78
2019-04-07T06:16:09.532Z,22.69
2019-04-07T06:17:08.996Z,22.75
2019-04-07T06:18:09.385Z,22.83
2019-04-07T06:19:09.037Z,22.70
2019-04-07T06:20:12.132Z,22.70
2019-04-07T06:21:10.196Z,22.69
2019-04-07T06:22:08.931Z,22.73
2019-04-07T06:23:08.903Z,22.73
2019-04-07T06:24:08.983Z,22.66
2019-04-07T06:25:09.713Z,22.75
2019-04-07T06:26:11.331Z,22.76
2019-04-07T06:27:08.887Z,22.69
2019-04-07T06:28:08.844Z,22.68
2019-04-07T06:29:09.421Z,22.66
2019-04-07T06:30:09.682Z,22.72
2019-04-07T06:31:09.266Z,22.75
2019-04-07T06:32:10.081Z,22.70
2019-04-07T06:33:08.922Z,22.66
2019-04-07T06:34:11.139Z,22.69
2019-04-07T06:35:12.863Z,22.78
2019-04-07T06:36:10.333Z,22.78
2019-04-07T06:37:08.753Z,22.70
2019-04-07T06:38:08.977Z,22.84
2019-04-07T06:39:09.407Z,22.80
2019-04-07T06:40:09.074Z,22.78
2019-04-07T06:41:08.718Z,22.68
2019-04-07T06:42:08.693Z,22.73
2019-04-07T06:43:09.334Z,22.65
2019-04-07T06:44:13.456Z,22.80
2019-04-07T06:45:09.684Z,22.68
2019-04-07T06:46:08.641Z,22.81
2019-04-07T06:47:08.627Z,22.76
2019-04-07T06:48:09.308Z,22.70
2019-04-07T06:49:11.288Z,22.83
2019-04-07T06:50:08.643Z,22.78
2019-04-07T06:51:08.600Z,22.72
2019-04-07T06:52:08.572Z,22.72
2019-04-07T06:53:15.774Z,22.73
2019-04-07T06:54:10.142Z,22.72
2019-04-07T06:55:08.859Z,22.76
2019-04-07T06:56:08.944Z,22.69
2019-04-07T06:57:08.565Z,22.80
2019-04-07T06:58:08.543Z,22.81
2019-04-07T06:59:11.891Z,22.76
2019-04-07T07:00:10.221Z,22.72
2019-04-07T07:01:08.481Z,22.75
2019-04-07T07:02:08.678Z,22.70
2019-04-07T07:03:08.464Z,22.83
2019-04-07T07:04:11.128Z,22.80
2019-04-07T07:05:08.531Z,22.80
2019-04-07T07:06:08.583Z,22.80
2019-04-07T07:07:08.938Z,22.80
2019-04-07T07:08:08.474Z,22.69
2019-04-07T07:09:08.388Z,22.75
2019-04-07T07:10:08.365Z,22.78
2019-04-07T07:11:09.753Z,22.70
2019-04-07T07:12:18.698Z,22.78
2019-04-07T07:13:11.886Z,22.73
2019-04-07T07:14:09.579Z,22.78
2019-04-07T07:15:09.085Z,22.75
2019-04-07T07:16:10.433Z,22.75
2019-04-07T07:17:08.302Z,22.72
2019-04-07T07:18:08.939Z,22.78
2019-04-07T07:19:08.387Z,22.70
2019-04-07T07:20:08.261Z,22.78
2019-04-07T07:21:08.253Z,22.78
2019-04-07T07:22:12.732Z,22.83
2019-04-07T07:23:10.170Z,22.83
2019-04-07T07:24:08.230Z,22.73
2019-04-07T07:25:10.309Z,22.75
2019-04-07T07:26:08.283Z,22.80
2019-04-07T07:27:10.334Z,22.81
2019-04-07T07:28:11.518Z,22.76
2019-04-07T07:29:08.352Z,22.72
2019-04-07T07:30:08.945Z,22.78
2019-04-07T07:31:08.858Z,22.83
2019-04-07T07:32:08.268Z,22.81
2019-04-07T07:33:10.846Z,22.76
2019-04-07T07:34:10.154Z,22.72
2019-04-07T07:35:10.266Z,22.80
2019-04-07T07:36:09.221Z,22.80
2019-04-07T07:37:08.407Z,22.72
2019-04-07T07:38:08.054Z,22.75
2019-04-07T07:39:11.411Z,22.73
2019-04-07T07:40:09.791Z,22.83
2019-04-07T07:41:08.921Z,22.81
2019-04-07T07:42:08.224Z,22.83
2019-04-07T07:43:08.624Z,22.72
2019-04-07T07:44:09.600Z,22.75
2019-04-07T07:45:10.891Z,22.75
2019-04-07T07:46:08.569Z,22.76
2019-04-07T07:47:08.079Z,22.80
2019-04-07T07:48:07.948Z,22.83
2019-04-07T07:49:07.933Z,22.81
2019-04-07T07:50:08.873Z,22.78
2019-04-07T07:51:10.904Z,22.73
2019-04-07T07:52:08.897Z,22.78
2019-04-07T07:53:07.979Z,22.81
2019-04-07T07:54:07.873Z,22.84
2019-04-07T07:55:08.022Z,22.87
2019-04-07T07:56:11.543Z,22.76
2019-04-07T07:57:08.857Z,22.81
2019-04-07T07:58:08.411Z,22.80
2019-04-07T07:59:07.837Z,22.83
2019-04-07T08:00:08.438Z,22.83
2019-04-07T08:01:11.288Z,22.80
2019-04-07T08:02:08.788Z,22.76
2019-04-07T08:03:08.487Z,22.80
2019-04-07T08:04:08.631Z,22.80
2019-04-07T08:05:08.148Z,22.73
2019-04-07T08:06:08.387Z,22.76
2019-04-07T08:07:10.812Z,22.78
2019-04-07T08:08:07.721Z,22.78
2019-04-07T08:09:13.956Z,22.80
2019-04-07T08:10:09.500Z,22.78
2019-04-07T08:11:07.698Z,22.78
2019-04-07T08:12:08.302Z,22.76
2019-04-07T08:13:08.840Z,22.76
2019-04-07T08:14:07.868Z,22.87
2019-04-07T08:15:08.095Z,22.87
2019-04-07T08:16:07.639Z,22.88
2019-04-07T08:17:08.449Z,22.84
2019-04-07T08:18:08.477Z,22.81
2019-04-07T08:19:09.428Z,22.81
2019-04-07T08:20:07.867Z,22.78
2019-04-07T08:21:07.581Z,22.87
2019-04-07T08:22:08.004Z,22.84
2019-04-07T08:23:07.913Z,22.90
2019-04-07T08:24:08.063Z,22.85
2019-04-07T08:25:07.566Z,22.80
2019-04-07T08:26:08.247Z,22.81
2019-04-07T08:27:08.813Z,22.81
2019-04-07T08:28:08.188Z,22.85
2019-04-07T08:29:07.761Z,22.88
2019-04-07T08:30:11.798Z,22.75
2019-04-07T08:31:08.526Z,22.81
2019-04-07T08:32:07.716Z,22.91
2019-04-07T08:33:08.227Z,22.88
2019-04-07T08:34:07.813Z,22.85
2019-04-07T08:35:08.020Z,22.80
2019-04-07T08:36:11.645Z,22.75
2019-04-07T08:37:08.461Z,22.80
2019-04-07T08:38:07.390Z,22.83
2019-04-07T08:39:20.312Z,22.88
2019-04-07T08:40:09.093Z,22.91
2019-04-07T08:41:10.128Z,22.84
2019-04-07T08:42:10.144Z,22.81
2019-04-07T08:43:08.332Z,22.85
2019-04-07T08:44:07.339Z,22.88
2019-04-07T08:45:08.150Z,22.88
2019-04-07T08:46:07.300Z,22.78
2019-04-07T08:47:10.740Z,22.87
2019-04-07T08:48:07.387Z,22.93
2019-04-07T08:49:07.638Z,22.85
2019-04-07T08:50:07.329Z,22.78
2019-04-07T08:51:08.475Z,22.84
2019-04-07T08:52:09.940Z,22.85
2019-04-07T08:53:10.401Z,22.88
2019-04-07T08:54:07.370Z,22.94
2019-04-07T08:55:07.359Z,22.90
2019-04-07T08:56:08.808Z,22.90
2019-04-07T08:57:07.199Z,22.93
2019-04-07T08:58:07.180Z,22.93
2019-04-07T08:59:09.503Z,22.91
2019-04-07T09:00:07.166Z,22.88
2019-04-07T09:01:07.398Z,22.94
2019-04-07T09:02:07.600Z,22.78
2019-04-07T09:03:11.396Z,22.87
2019-04-07T09:04:09.356Z,22.90
2019-04-07T09:05:07.598Z,22.91
2019-04-07T09:06:07.269Z,22.88
2019-04-07T09:07:07.073Z,22.84
2019-04-07T09:08:07.399Z,22.83
2019-04-07T09:09:07.912Z,22.96
2019-04-07T09:10:07.277Z,22.88
2019-04-07T09:11:07.825Z,22.88
2019-04-07T09:12:07.144Z,22.83
2019-04-07T09:13:09.260Z,22.80
2019-04-07T09:14:07.973Z,22.87
2019-04-07T09:15:09.442Z,22.87
2019-04-07T09:16:07.068Z,22.83
2019-04-07T09:17:06.948Z,22.78
2019-04-07T09:18:06.968Z,22.80
2019-04-07T09:19:08.372Z,22.87
2019-04-07T09:20:09.471Z,22.85
2019-04-07T09:21:07.740Z,22.80
2019-04-07T09:22:07.433Z,22.83
2019-04-07T09:23:07.138Z,22.83
2019-04-07T09:24:07.211Z,22.90
2019-04-07T09:25:09.278Z,22.84
2019-04-07T09:26:10.067Z,22.90
2019-04-07T09:27:06.868Z,22.87
2019-04-07T09:28:07.624Z,22.91
2019-04-07T09:29:06.863Z,22.90
2019-04-07T09:30:08.967Z,22.83
2019-04-07T09:31:07.391Z,22.87
2019-04-07T09:32:08.301Z,22.91
2019-04-07T09:33:07.074Z,22.88
2019-04-07T09:34:07.052Z,22.87
2019-04-07T09:35:07.285Z,22.88
2019-04-07T09:36:06.957Z,22.85
2019-04-07T09:37:06.977Z,22.93
2019-04-07T09:38:08.002Z,22.88
2019-04-07T09:39:06.814Z,22.96
2019-04-07T09:40:06.857Z,22.96
2019-04-07T09:41:07.294Z,22.96
2019-04-07T09:42:06.683Z,22.85
2019-04-07T09:43:06.670Z,22.98
2019-04-07T09:44:06.649Z,22.91
2019-04-07T09:45:09.019Z,22.94
2019-04-07T09:46:09.364Z,22.94
2019-04-07T09:47:06.633Z,22.96
2019-04-07T09:48:06.602Z,22.91
2019-04-07T09:49:06.611Z,22.87
2019-04-07T09:50:06.769Z,22.96
2019-04-07T09:51:07.264Z,22.93
2019-04-07T09:52:10.206Z,22.93
2019-04-07T09:53:07.551Z,22.94
2019-04-07T09:54:06.550Z,22.98
2019-04-07T09:55:08.573Z,22.98
2019-04-07T09:56:08.867Z,22.96
2019-04-07T09:57:07.351Z,22.93
2019-04-07T09:58:09.178Z,22.88
2019-04-07T09:59:06.765Z,22.96
2019-04-07T10:00:07.650Z,22.94
2019-04-07T10:01:07.963Z,22.93
2019-04-07T10:02:06.765Z,22.93
2019-04-07T10:03:11.453Z,22.94
2019-04-07T10:04:07.793Z,22.94
2019-04-07T10:05:06.419Z,22.93
2019-04-07T10:06:09.909Z,22.90
2019-04-07T10:07:09.139Z,22.96
2019-04-07T10:08:07.202Z,22.94
2019-04-07T10:09:06.763Z,22.96
2019-04-07T10:10:11.611Z,22.94
2019-04-07T10:11:07.594Z,22.96
2019-04-07T10:12:06.429Z,22.90
2019-04-07T10:13:06.679Z,22.93
2019-04-07T10:14:06.382Z,23.00
2019-04-07T10:15:06.489Z,23.00
2019-04-07T10:16:09.009Z,22.98
2019-04-07T10:17:06.500Z,22.98
2019-04-07T10:18:06.279Z,22.93
2019-04-07T10:19:06.255Z,22.91
2019-04-07T10:20:06.499Z,22.90
2019-04-07T10:21:06.256Z,22.96
2019-04-07T10:22:06.232Z,22.99
2019-04-07T10:23:06.211Z,22.96
2019-04-07T10:24:06.360Z,22.90
2019-04-07T10:25:06.207Z,22.96
2019-04-07T10:26:06.182Z,23.00
2019-04-07T10:27:06.918Z,22.98
2019-04-07T10:28:08.891Z,22.96
2019-04-07T10:29:06.154Z,22.94
2019-04-07T10:30:06.779Z,22.98
2019-04-07T10:31:06.131Z,22.98
2019-04-07T10:32:06.436Z,22.93
2019-04-07T10:33:06.730Z,22.99
2019-04-07T10:34:06.279Z,22.99
2019-04-07T10:35:06.880Z,22.96
2019-04-07T10:36:06.086Z,22.94
2019-04-07T10:37:06.778Z,23.00
2019-04-07T10:38:06.053Z,22.93
2019-04-07T10:39:06.184Z,22.99
2019-04-07T10:40:16.866Z,22.94
2019-04-07T10:41:07.033Z,22.91
2019-04-07T10:42:06.747Z,22.94
2019-04-07T10:43:06.017Z,23.00
2019-04-07T10:44:05.989Z,22.99
2019-04-07T10:45:05.976Z,22.96
2019-04-07T10:46:06.732Z,22.98
2019-04-07T10:47:06.044Z,22.96
2019-04-07T10:48:05.942Z,23.00
2019-04-07T10:49:06.775Z,22.98
2019-04-07T10:50:08.494Z,23.00
2019-04-07T10:51:06.723Z,22.98
2019-04-07T10:52:05.907Z,23.00
2019-04-07T10:53:05.894Z,22.99
2019-04-07T10:54:06.623Z,22.96
2019-04-07T10:55:05.860Z,22.94
2019-04-07T10:56:06.831Z,22.99
2019-04-07T10:57:06.544Z,23.02
2019-04-07T10:58:05.843Z,23.00
2019-04-07T10:59:05.841Z,23.00
2019-04-07T11:00:05.927Z,23.05
2019-04-07T11:01:06.443Z,23.00
2019-04-07T11:02:05.878Z,23.03
2019-04-07T11:03:06.471Z,23.00
2019-04-07T11:04:06.053Z,23.02
2019-04-07T11:05:06.926Z,22.99
2019-04-07T11:06:05.744Z,23.02
2019-04-07T11:07:06.433Z,23.03
2019-04-07T11:08:06.059Z,23.02
2019-04-07T11:09:05.960Z,23.03
2019-04-07T11:10:05.695Z,22.98
2019-04-07T11:11:06.255Z,23.02
2019-04-07T11:12:06.243Z,22.93
2019-04-07T11:13:05.693Z,23.00
2019-04-07T11:14:05.853Z,23.02
2019-04-07T11:15:05.641Z,22.98
2019-04-07T11:16:06.314Z,23.05
2019-04-07T11:17:06.397Z,23.00
2019-04-07T11:18:05.606Z,23.06
2019-04-07T11:19:05.595Z,23.05
2019-04-07T11:20:05.585Z,23.05
2019-04-07T11:21:05.568Z,23.06
2019-04-07T11:22:05.717Z,23.02
2019-04-07T11:23:06.220Z,23.00
2019-04-07T11:24:06.448Z,23.06
2019-04-07T11:25:06.222Z,22.99
2019-04-07T11:26:05.511Z,23.03
2019-04-07T11:27:05.505Z,23.00
2019-04-07T11:28:05.502Z,23.05
2019-04-07T11:29:06.277Z,23.02
2019-04-07T11:30:05.468Z,23.02
2019-04-07T11:31:05.733Z,22.98
2019-04-07T11:32:05.568Z,23.02
2019-04-07T11:33:05.445Z,23.00
2019-04-07T11:34:05.561Z,23.00
2019-04-07T11:35:06.046Z,23.00
2019-04-07T11:36:06.016Z,23.03
2019-04-07T11:37:06.294Z,23.06
2019-04-07T11:38:05.821Z,23.08
2019-04-07T11:39:05.841Z,22.98
2019-04-07T11:40:06.288Z,23.03
2019-04-07T11:41:05.839Z,23.06
2019-04-07T11:42:06.024Z,23.03
2019-04-07T11:43:05.477Z,23.02
2019-04-07T11:44:05.437Z,23.02
2019-04-07T11:45:06.139Z,23.02
2019-04-07T11:46:05.725Z,23.00
2019-04-07T11:47:05.277Z,23.03
2019-04-07T11:48:05.572Z,23.05
2019-04-07T11:49:07.367Z,23.03
2019-04-07T11:50:06.356Z,23.00
2019-04-07T11:51:05.289Z,23.05
2019-04-07T11:52:05.935Z,23.06
2019-04-07T11:53:05.212Z,23.03
2019-04-07T11:54:05.266Z,23.05
2019-04-07T11:55:05.315Z,23.02
2019-04-07T11:56:08.803Z,23.05
2019-04-07T11:57:06.181Z,23.05
2019-04-07T11:58:14.385Z,23.03
2019-04-07T11:59:07.825Z,23.00
2019-04-07T12:00:05.129Z,23.02
2019-04-07T12:01:05.821Z,23.03
2019-04-07T12:02:07.646Z,23.03
2019-04-07T12:03:05.999Z,23.08
2019-04-07T12:04:05.765Z,23.02
2019-04-07T12:05:05.451Z,23.08
2019-04-07T12:06:05.080Z,23.08
2019-04-07T12:07:05.069Z,23.10
2019-04-07T12:08:05.111Z,23.06
2019-04-07T12:09:05.063Z,23.05
2019-04-07T12:10:05.142Z,23.10
2019-04-07T12:11:06.523Z,23.06
2019-04-07T12:12:05.813Z,23.03
2019-04-07T12:13:05.804Z,23.06
2019-04-07T12:14:05.175Z,23.02
2019-04-07T12:15:05.254Z,23.06
2019-04-07T12:16:05.635Z,23.00
2019-04-07T12:17:06.981Z,23.05
2019-04-07T12:18:07.166Z,23.05
2019-04-07T12:19:05.811Z,23.06
2019-04-07T12:20:05.353Z,23.05
2019-04-07T12:21:07.184Z,23.09
2019-04-07T12:22:08.695Z,23.06
2019-04-07T12:23:05.958Z,23.08
2019-04-07T12:24:04.888Z,23.06
2019-04-07T12:25:05.755Z,23.06
2019-04-07T12:26:06.343Z,23.08
2019-04-07T12:27:04.889Z,23.05
2019-04-07T12:28:05.447Z,23.09
2019-04-07T12:29:04.832Z,23.06
2019-04-07T12:30:05.439Z,23.06
2019-04-07T12:31:05.370Z,23.09
2019-04-07T12:32:05.128Z,23.09
2019-04-07T12:33:07.273Z,23.17
2019-04-07T12:34:05.040Z,23.12
2019-04-07T12:35:05.265Z,23.08
2019-04-07T12:36:05.156Z,23.08
2019-04-07T12:37:06.856Z,23.10
2019-04-07T12:38:05.222Z,23.09
2019-04-07T12:39:04.741Z,23.09
2019-04-07T12:40:05.417Z,23.09
2019-04-07T12:41:14.302Z,23.06
2019-04-07T12:42:07.112Z,23.08
2019-04-07T12:43:04.680Z,23.13
2019-04-07T12:44:04.672Z,23.12
2019-04-07T12:45:04.808Z,23.13
2019-04-07T12:46:05.528Z,23.10
2019-04-07T12:47:04.925Z,23.08
2019-04-07T12:48:04.766Z,23.09
2019-04-07T12:49:06.791Z,23.15
2019-04-07T12:50:05.170Z,23.12
2019-04-07T12:51:04.602Z,23.10
2019-04-07T12:52:05.468Z,23.09